Airfield :
LOGIN :

Register | Disclaimer

   EN    FR    IT 

 










Legend :    VFR   Marginal VFR   IFR   Intensive IFR   Very Intensive IFR
Visi :
Ceiling :
>= 8 km
>= 3000ft
5 to 8 km
1000 to 3000 ft
1500m to 5 km
500 to 1000 ft
800 to 1500m
200 to 500 ft
< 800m
< 200 ft
Symbols :   Thunderstorms  Fog  Heavy snow  Heavy precipitations  Wind > 20 kt
SIGMETs :     Misc.  Thunderstorms  Icing  Turbulence  Mountain Waves  Volcanic Ashes







- Airport Elevation : 156 ft
- IATA code : LCC


LIBN - Lecce Galatine (military)

CURRENT METAR :
  • 230855Z 05004KT 9999 FEW015 31/21 Q1006 RMK SCT VIS MIN 9999 WIND THR14 /////KT WIND THR32 15005KTKT BLU

EXPIRED METARs :
  • 230755Z 31003KT 9999 FEW015 28/22 Q1007 RMK FEW VIS MIN 9999 WIND THR14 /////KT WIND THR32 34004KT BLU
  • 230655Z 30003KT 9999 SCT014 27/23 Q1008 RMK SCT VIS MIN 9999 WIND THR14 /////KT WIND THR32 33003KT BLU

TAF TAF LIBN
Valid from the 23 at 09:00 until the 23 at 18:00 UTC


230800Z 2309/2318 36010KT 9999 SCT020
TEMPO 2311/2316 34015G25KT 5000 TSRA FEW015CB BKN030
No reported NOTAMs for that airfield.
1 SIGMET reported for the Brindisi FIR (LIBB) :
 
Embedded thunderstorms
LIBB SIGMET 2 VALID 230700/231100 LIIB
LIBB BRINDISI FIR EMBD TS FCST N OF LINE N4033 E01509 - N4149 E01811 TOP FL390 STNR NC=



MET'MAP, your aeronautical weather chart ! - Copyright ORBIFLY December 2007 - Disclaimer

ORBIFLY MET'MAP TEAM :

Programming & Development : Alexandra Zaïnal
Concept & Development : Baudouin d'Aumeries
Co-Development & Prog : Marc-Olivier Méhu
Technical & hardware support : Manuel Goepfert

Contact : metmap@orbifly.com




SOURCES & CREDITS :

   NOAA